KMLI

Quad City International Airport

Moline, Illinois, USA
KMLI 221558Z 2216/2312 12007KT 2SM -FZDZ BR OVC015 FM222100 06005KT 2SM -RASN BR OVC008 FM230400 02010KT 1SM -SN BR OVC006
Issued Valid From Valid To
Jan-22 @ 15:58 UTC
(54 minutes ago)
Jan-22 @ 16:00 UTC
(52 minutes ago)
Jan-23 @ 12:00 UTC
(in 19 hours)
Jan-22 @ 16:00 to Jan-22 @ 21:00
KMLI 221558Z 2216/2312 12007KT 2SM -FZDZ BR OVC015
Wind Visibility Clouds Conditions
120° at 7 knots 2 miles
  • Overcast at 1,500' AGL
  • Light Freezing
  • Light Drizzle
  • Mist
From Jan-22 @ 21:00 to Jan-23 @ 04:00
FM222100 06005KT 2SM -RASN BR OVC008
Wind Visibility Clouds Conditions
60° at 5 knots 2 miles
  • Overcast at 800' AGL
  • Light Rain
  • Light Snow
  • Mist
From Jan-23 @ 04:00 to Jan-23 @ 12:00
FM230400 02010KT 1SM -SN BR OVC006
Wind Visibility Clouds Conditions
20° at 10 knots 1 miles
  • Overcast at 600' AGL
  • Light Snow
  • Mist
KMLI 221558Z 2216/2312 12007KT 2SM -FZDZ BR OVC015 FM222100 06005KT 2SM -RASN BR OVC008 FM230400 02010KT 1SM -SN BR OVC006
Issued Jan-22 @ 15:58 UTC
(54 minutes ago)
Valid From Jan-22 @ 16:00 UTC
(52 minutes ago)
Valid To Jan-23 @ 12:00 UTC
(in 19 hours)
Jan-22 @ 16:00 - Jan-22 @ 21:00
Wind Visibility
120° at 7 knots 2 miles
Clouds
  • Overcast at 1,500' AGL
Conditions
  • Light Freezing
  • Light Drizzle
  • Mist
From Jan-22 @ 21:00 - Jan-23 @ 04:00
Wind Visibility
60° at 5 knots 2 miles
Clouds
  • Overcast at 800' AGL
Conditions
  • Light Rain
  • Light Snow
  • Mist
From Jan-23 @ 04:00 - Jan-23 @ 12:00
Wind Visibility
20° at 10 knots 1 miles
Clouds
  • Overcast at 600' AGL
Conditions
  • Light Snow
  • Mist